createdAt,value
2022-08-04T00:06:05.595Z,23.00
2022-08-04T00:12:11.884Z,22.90
2022-08-04T00:18:17.748Z,22.80
2022-08-04T00:24:22.211Z,22.80
2022-08-04T00:30:25.376Z,22.70
2022-08-04T00:36:28.819Z,22.60
2022-08-04T00:42:34.738Z,22.60
2022-08-04T00:49:14.137Z,22.50
2022-08-04T00:55:53.402Z,22.50
2022-08-04T01:02:12.674Z,22.50
2022-08-04T01:08:51.763Z,22.50
2022-08-04T01:15:08.205Z,22.50
2022-08-04T01:21:44.289Z,22.50
2022-08-04T01:28:15.478Z,22.50
2022-08-04T01:34:21.887Z,22.50
2022-08-04T01:40:28.126Z,22.40
2022-08-04T01:46:34.536Z,22.40
2022-08-04T01:52:38.863Z,22.40
2022-08-04T01:58:41.646Z,22.30
2022-08-04T02:04:44.086Z,22.20
2022-08-04T02:11:01.338Z,22.10
2022-08-04T02:17:19.864Z,22.10
2022-08-04T02:23:38.913Z,22.20
2022-08-04T02:29:46.149Z,22.20
2022-08-04T02:35:54.361Z,22.20
2022-08-04T02:41:58.807Z,22.10
2022-08-04T02:48:08.153Z,22.00
2022-08-04T02:54:33.629Z,21.90
2022-08-04T03:00:37.732Z,21.90
2022-08-04T03:06:42.996Z,21.80
2022-08-04T03:13:24.499Z,21.70
2022-08-04T03:19:54.436Z,21.70
2022-08-04T03:26:25.786Z,21.70
2022-08-04T03:32:44.001Z,21.70
2022-08-04T03:39:25.333Z,21.90
2022-08-04T03:46:04.601Z,22.10
2022-08-04T03:53:09.531Z,22.30
2022-08-04T03:59:23.688Z,22.60
2022-08-04T04:05:59.748Z,22.90
2022-08-04T04:12:10.155Z,23.30
2022-08-04T04:18:24.611Z,23.60
2022-08-04T04:24:48.476Z,24.00
2022-08-04T04:31:10.689Z,24.20
2022-08-04T04:37:37.070Z,24.50
2022-08-04T04:44:30.748Z,24.80
2022-08-04T04:51:19.782Z,25.00
2022-08-04T04:57:53.883Z,25.00
2022-08-04T05:04:08.947Z,25.10
2022-08-04T05:10:34.435Z,25.20
2022-08-04T05:16:51.478Z,25.40
2022-08-04T05:23:04.215Z,25.70
2022-08-04T05:29:17.308Z,26.00
2022-08-04T05:35:52.869Z,26.10
2022-08-04T05:41:55.577Z,26.60
2022-08-04T05:48:01.602Z,26.70
2022-08-04T05:54:06.136Z,26.80
2022-08-04T06:00:31.735Z,32.30
2022-08-04T06:06:32.403Z,35.30
2022-08-04T06:12:41.669Z,36.60
2022-08-04T06:19:59.695Z,36.70
2022-08-04T06:25:11.205Z,38.30
2022-08-04T06:32:29.564Z,38.30
2022-08-04T06:37:42.522Z,39.00
2022-08-04T06:43:47.384Z,39.60
2022-08-04T06:51:23.248Z,39.10
2022-08-04T06:56:17.104Z,39.90
2022-08-04T07:02:22.617Z,40.40
2022-08-04T07:08:25.095Z,39.90
2022-08-04T07:14:28.392Z,40.70
2022-08-04T07:20:36.176Z,40.10
2022-08-04T07:26:38.702Z,40.30
2022-08-04T07:32:42.009Z,39.40
2022-08-04T07:38:48.739Z,40.60
2022-08-04T07:44:54.019Z,40.20
2022-08-04T07:50:56.480Z,40.70
2022-08-04T07:56:58.848Z,40.10
2022-08-04T08:03:02.133Z,41.80
2022-08-04T08:09:13.477Z,40.80
2022-08-04T08:15:20.999Z,40.90
2022-08-04T08:21:23.647Z,40.20
2022-08-04T08:27:26.946Z,41.00
2022-08-04T08:33:30.308Z,41.00
2022-08-04T08:39:38.269Z,40.70
2022-08-04T08:45:52.085Z,42.20
2022-08-04T08:52:16.283Z,40.10
2022-08-04T08:59:15.465Z,41.00
2022-08-04T09:05:54.645Z,41.30
2022-08-04T09:12:12.724Z,42.10
2022-08-04T09:18:27.788Z,41.20
2022-08-04T09:24:38.462Z,40.90
2022-08-04T09:30:43.491Z,40.90
2022-08-04T09:37:17.357Z,40.60
2022-08-04T09:43:57.085Z,41.10
2022-08-04T09:50:12.200Z,40.80
2022-08-04T09:56:38.406Z,40.90
2022-08-04T10:02:45.687Z,39.90
2022-08-04T10:09:15.539Z,39.90
2022-08-04T10:15:21.625Z,39.50
2022-08-04T10:21:50.935Z,38.70
2022-08-04T10:35:04.068Z,40.20
2022-08-04T10:41:06.503Z,39.40
2022-08-04T10:47:19.201Z,38.10
2022-08-04T10:53:24.819Z,38.30
2022-08-04T10:59:43.878Z,38.20
2022-08-04T11:06:04.840Z,37.00
2022-08-04T11:12:26.732Z,36.20
2022-08-04T11:18:56.278Z,37.50
2022-08-04T11:25:04.314Z,38.70
2022-08-04T11:31:12.716Z,38.20
2022-08-04T11:37:28.991Z,38.80
2022-08-04T11:44:02.284Z,37.70
2022-08-04T11:50:05.686Z,35.70
2022-08-04T11:56:12.673Z,36.80
2022-08-04T12:02:33.932Z,37.30
2022-08-04T12:09:22.984Z,36.20
2022-08-04T12:15:31.541Z,38.10
2022-08-04T12:22:01.805Z,38.20
2022-08-04T12:28:08.394Z,39.60
2022-08-04T12:34:29.820Z,39.80
2022-08-04T12:40:41.094Z,40.80
2022-08-04T12:46:46.783Z,40.80
2022-08-04T12:53:02.711Z,41.70
2022-08-04T12:59:12.797Z,40.20
2022-08-04T13:05:17.027Z,35.00
2022-08-04T13:11:20.422Z,33.60
2022-08-04T13:17:22.999Z,34.40
2022-08-04T13:24:10.489Z,33.30
2022-08-04T13:30:00.191Z,33.20
2022-08-04T13:36:08.643Z,33.80
2022-08-04T13:42:13.987Z,33.80
2022-08-04T13:48:31.905Z,33.70
2022-08-04T13:54:42.859Z,33.40
2022-08-04T14:01:00.686Z,33.10
2022-08-04T14:07:26.544Z,32.80
2022-08-04T14:13:41.357Z,32.50
2022-08-04T14:19:48.079Z,32.40
2022-08-04T14:25:50.547Z,32.30
2022-08-04T14:32:01.356Z,32.30
2022-08-04T14:38:08.246Z,32.50
2022-08-04T14:44:10.746Z,32.60
2022-08-04T14:50:14.669Z,32.50
2022-08-04T14:56:37.447Z,32.60
2022-08-04T15:02:42.940Z,32.50
2022-08-04T15:08:47.324Z,32.50
2022-08-04T15:14:49.736Z,32.50
2022-08-04T15:20:52.611Z,32.30
2022-08-04T15:26:57.880Z,32.20
2022-08-04T15:33:07.987Z,32.10
2022-08-04T15:39:11.342Z,31.80
2022-08-04T15:46:33.021Z,31.60
2022-08-04T15:51:47.783Z,31.40
2022-08-04T15:58:02.307Z,31.40
2022-08-04T16:04:30.877Z,31.30
2022-08-04T16:10:39.605Z,31.20
2022-08-04T16:16:42.526Z,31.00
2022-08-04T16:22:51.953Z,30.90
2022-08-04T16:28:54.224Z,30.60
2022-08-04T16:35:04.301Z,30.70
2022-08-04T16:41:06.619Z,30.60
2022-08-04T16:47:22.467Z,30.50
2022-08-04T16:53:57.878Z,30.30
2022-08-04T16:59:56.272Z,30.20
2022-08-04T17:06:17.902Z,30.10
2022-08-04T17:12:20.958Z,29.90
2022-08-04T17:18:27.596Z,29.70
2022-08-04T17:24:29.964Z,29.50
2022-08-04T17:30:32.230Z,29.60
2022-08-04T17:36:34.547Z,29.30
2022-08-04T17:42:38.991Z,29.10
2022-08-04T17:48:43.212Z,29.00
2022-08-04T17:54:45.422Z,28.90
2022-08-04T18:00:51.937Z,29.00
2022-08-04T18:07:04.767Z,28.70
2022-08-04T18:13:28.450Z,28.60
2022-08-04T18:19:31.543Z,28.50
2022-08-04T18:25:51.261Z,28.50
2022-08-04T18:31:56.026Z,28.40
2022-08-04T18:38:05.588Z,28.30
2022-08-04T18:44:10.774Z,28.20
2022-08-04T18:50:59.887Z,28.10
2022-08-04T18:56:38.463Z,27.90
2022-08-04T19:03:00.852Z,27.80
2022-08-04T19:09:06.131Z,27.70
2022-08-04T19:15:11.172Z,27.60
2022-08-04T19:21:13.988Z,27.50
2022-08-04T19:27:16.268Z,27.30
2022-08-04T19:33:19.449Z,27.10
2022-08-04T19:39:27.760Z,26.90
2022-08-04T19:45:41.758Z,26.80
2022-08-04T19:51:47.628Z,26.70
2022-08-04T19:57:50.748Z,26.70
2022-08-04T20:04:08.215Z,26.70
2022-08-04T20:10:14.373Z,26.70
2022-08-04T20:16:29.204Z,26.70
2022-08-04T20:22:51.847Z,26.60
2022-08-04T20:28:55.993Z,26.50
2022-08-04T20:34:59.452Z,26.50
2022-08-04T20:41:02.375Z,26.40
2022-08-04T20:47:04.782Z,26.40
2022-08-04T20:53:16.367Z,26.30
2022-08-04T20:59:20.277Z,26.20
2022-08-04T21:05:22.619Z,26.20
2022-08-04T21:11:25.399Z,26.00
2022-08-04T21:17:58.870Z,25.90
2022-08-04T21:23:58.843Z,25.80
2022-08-04T21:30:01.585Z,25.70
2022-08-04T21:36:07.854Z,25.60
2022-08-04T21:42:30.599Z,25.50
2022-08-04T21:48:33.238Z,25.40
2022-08-04T21:54:36.659Z,25.30
2022-08-04T22:00:39.554Z,25.20
2022-08-04T22:06:42.391Z,25.10
2022-08-04T22:12:53.967Z,25.00
2022-08-04T22:18:58.109Z,25.00
2022-08-04T22:31:23.694Z,24.80
2022-08-04T22:37:35.926Z,24.80
2022-08-04T22:43:45.522Z,24.70
2022-08-04T22:50:21.725Z,24.60
2022-08-04T22:56:37.477Z,24.50
2022-08-04T23:02:40.069Z,24.40
2022-08-04T23:08:43.271Z,24.40
2022-08-04T23:14:48.983Z,24.40
2022-08-04T23:20:52.827Z,24.30
2022-08-04T23:26:55.031Z,24.30
2022-08-04T23:32:58.821Z,24.20
2022-08-04T23:39:03.814Z,24.10
2022-08-04T23:45:08.201Z,24.00
2022-08-04T23:51:13.949Z,24.00
2022-08-04T23:57:17.066Z,24.00
